Time;durP1;ratioP1;P1;durP2;ratioP2;P2;SDS_P1;SDS_P2;PMS_P1;PMS_P2;Temp;Humidity;BMP_temperature;BMP_pressure;BME280_temperature;BME280_humidity;BME280_pressure;Samples;Min_cycle;Max_cycle;Signal;HPM_P1;HPM_P2
2022/11/23 00:01:34;;;;;;;8.98;6.05;;;;;;;;;;4999933;28;20025;-48
2022/11/23 00:04:04;;;;;;;8.65;5.75;;;;;;;;;;4999299;28;20096;-47
2022/11/23 00:06:30;;;;;;;14.13;6.55;;;;;;;;;;5007459;28;20561;-45
2022/11/23 00:08:57;;;;;;;13.20;8.38;;;;;;;;;;5002861;28;20138;-48
2022/11/23 00:11:24;;;;;;;15.38;8.55;;;;;;;;;;4997283;28;20030;-45
2022/11/23 00:13:50;;;;;;;18.02;8.18;;;;;;;;;;4996141;28;20541;-46
2022/11/23 00:16:21;;;;;;;12.55;7.28;;;;;;;;;;5000227;28;20081;-47
2022/11/23 00:18:47;;;;;;;12.32;7.65;;;;;;;;;;5004082;28;20037;-46
2022/11/23 00:21:16;;;;;;;11.27;7.10;;;;;;;;;;5006108;28;20037;-45
2022/11/23 00:23:42;;;;;;;13.70;6.70;;;;;;;;;;4998613;28;20030;-46
2022/11/23 00:26:08;;;;;;;12.32;6.75;;;;;;;;;;4997469;28;20030;-44
2022/11/23 00:28:37;;;;;;;12.48;7.47;;;;;;;;;;5006511;28;20025;-45
2022/11/23 00:31:03;;;;;;;11.73;6.85;;;;;;;;;;5006307;28;20032;-45
2022/11/23 00:33:28;;;;;;;8.02;4.75;;;;;;;;;;5002122;28;20489;-49
2022/11/23 00:36:02;;;;;;;6.35;4.70;;;;;;;;;;5001639;28;20062;-44
2022/11/23 00:38:27;;;;;;;11.50;5.90;;;;;;;;;;5005693;28;20033;-44
2022/11/23 00:41:00;;;;;;;8.63;5.32;;;;;;;;;;5002478;28;20647;-47
2022/11/23 00:43:25;;;;;;;;;;;;;;;;;;5008432;28;20018;-47
2022/11/23 00:46:01;;;;;;;8.57;3.90;;;;;;;;;;5005218;28;19925;-45
2022/11/23 00:48:27;;;;;;;11.80;6.40;;;;;;;;;;5004412;28;20022;-44
2022/11/23 00:50:52;;;;;;;11.88;7.30;;;;;;;;;;5006093;28;20069;-44
2022/11/23 00:53:17;;;;;;;9.32;5.13;;;;;;;;;;5006817;28;20378;-45
2022/11/23 00:55:51;;;;;;;9.25;5.13;;;;;;;;;;5005952;28;20044;-46
2022/11/23 00:58:17;;;;;;;8.70;5.55;;;;;;;;;;5001939;28;20108;-44
2022/11/23 01:00:43;;;;;;;11.73;6.90;;;;;;;;;;4994115;28;20130;-46
2022/11/23 01:03:08;;;;;;;15.95;8.20;;;;;;;;;;5001200;28;20034;-45
2022/11/23 01:05:37;;;;;;;22.30;12.38;;;;;;;;;;5004304;28;20474;-44
2022/11/23 01:08:04;;;;;;;21.73;11.23;;;;;;;;;;5007442;28;20508;-45
2022/11/23 01:10:30;;;;;;;18.00;10.32;;;;;;;;;;4999353;28;20029;-45
2022/11/23 01:12:56;;;;;;;18.38;9.23;;;;;;;;;;4996538;28;20042;-44
2022/11/23 01:15:22;;;;;;;15.10;8.35;;;;;;;;;;5003078;28;20070;-45
2022/11/23 01:17:47;;;;;;;11.20;6.60;;;;;;;;;;5001734;28;20060;-44
2022/11/23 01:20:12;;;;;;;12.27;6.82;;;;;;;;;;5002370;28;20042;-45
2022/11/23 01:22:38;;;;;;;9.50;5.68;;;;;;;;;;5004899;28;20022;-46
2022/11/23 01:25:03;;;;;;;10.05;5.82;;;;;;;;;;4999363;28;20053;-47
2022/11/23 01:27:29;;;;;;;5.15;3.95;;;;;;;;;;5007908;28;20024;-46
2022/11/23 01:29:54;;;;;;;11.05;5.68;;;;;;;;;;5009027;28;20503;-50
2022/11/23 01:32:19;;;;;;;15.00;7.05;;;;;;;;;;5007894;28;20077;-45
2022/11/23 01:34:45;;;;;;;12.60;7.22;;;;;;;;;;5001752;28;20061;-47
2022/11/23 01:37:10;;;;;;;9.50;5.38;;;;;;;;;;4997595;28;20038;-45
2022/11/23 01:39:35;;;;;;;6.75;4.22;;;;;;;;;;5002960;28;20048;-44
2022/11/23 01:42:05;;;;;;;5.70;3.50;;;;;;;;;;5002227;28;20094;-45
2022/11/23 01:44:33;;;;;;;9.25;5.45;;;;;;;;;;5006633;28;20057;-44
2022/11/23 01:47:00;;;;;;;8.82;4.45;;;;;;;;;;4998543;28;20173;-50
2022/11/23 01:49:34;;;;;;;10.63;5.22;;;;;;;;;;5005047;28;20441;-45
2022/11/23 01:52:13;;;;;;;11.55;4.90;;;;;;;;;;5003106;28;20131;-46
2022/11/23 01:54:45;;;;;;;5.68;3.65;;;;;;;;;;5003806;28;20030;-45
2022/11/23 01:57:16;;;;;;;7.72;4.50;;;;;;;;;;5003584;28;20371;-46
2022/11/23 01:59:41;;;;;;;5.78;3.60;;;;;;;;;;5005712;28;20042;-48
2022/11/23 02:02:07;;;;;;;7.65;3.75;;;;;;;;;;5001179;28;20093;-49
2022/11/23 02:04:36;;;;;;;5.43;3.40;;;;;;;;;;5000047;28;20454;-47
2022/11/23 02:07:03;;;;;;;5.85;3.53;;;;;;;;;;5002739;28;20034;-44
2022/11/23 02:09:31;;;;;;;5.78;3.05;;;;;;;;;;4994677;28;20042;-44
2022/11/23 02:11:57;;;;;;;5.18;2.78;;;;;;;;;;5003706;28;20041;-45
2022/11/23 02:14:22;;;;;;;6.25;3.45;;;;;;;;;;5007935;28;20038;-48
2022/11/23 02:16:47;;;;;;;4.22;3.40;;;;;;;;;;5003824;28;20021;-47
2022/11/23 02:19:22;;;;;;;3.20;2.45;;;;;;;;;;4998308;28;20030;-45
2022/11/23 02:21:51;;;;;;;4.80;2.45;;;;;;;;;;4998979;28;20097;-44
2022/11/23 02:24:29;;;;;;;6.93;3.33;;;;;;;;;;4997518;28;20038;-46
2022/11/23 02:26:55;;;;;;;4.85;2.83;;;;;;;;;;4994397;28;20046;-47
2022/11/23 02:29:25;;;;;;;2.63;2.40;;;;;;;;;;5001410;28;20104;-47
2022/11/23 02:31:51;;;;;;;3.55;2.33;;;;;;;;;;4993355;28;20065;-45
2022/11/23 02:34:17;;;;;;;6.10;2.67;;;;;;;;;;5001518;28;20126;-44
2022/11/23 02:36:48;;;;;;;6.72;2.58;;;;;;;;;;4994348;28;20054;-50
2022/11/23 02:39:23;;;;;;;3.05;2.50;;;;;;;;;;4998018;28;20049;-44
2022/11/23 02:41:51;;;;;;;5.80;2.20;;;;;;;;;;5001289;28;20037;-46
2022/11/23 02:44:40;;;;;;;8.50;4.70;;;;;;;;;;5005311;28;20038;-45
2022/11/23 02:47:06;;;;;;;10.88;6.07;;;;;;;;;;5003310;28;20042;-50
2022/11/23 02:49:32;;;;;;;6.38;3.83;;;;;;;;;;5008853;28;20437;-47
2022/11/23 02:51:58;;;;;;;5.70;3.03;;;;;;;;;;5003991;28;20030;-44
2022/11/23 02:54:23;;;;;;;5.03;3.10;;;;;;;;;;4997499;28;20038;-47
2022/11/23 02:56:48;;;;;;;7.22;4.47;;;;;;;;;;4998739;28;20077;-49
2022/11/23 02:59:14;;;;;;;7.38;4.55;;;;;;;;;;5002245;28;20038;-45
2022/11/23 03:01:39;;;;;;;4.32;2.95;;;;;;;;;;5009190;28;20033;-44
2022/11/23 03:04:05;;;;;;;5.03;3.25;;;;;;;;;;4994992;28;20038;-45
2022/11/23 03:06:31;;;;;;;5.53;3.20;;;;;;;;;;5004080;28;20583;-47
2022/11/23 03:08:56;;;;;;;8.30;3.47;;;;;;;;;;5005260;28;20121;-45
2022/11/23 03:11:22;;;;;;;5.05;2.97;;;;;;;;;;5006950;28;20454;-46
2022/11/23 03:13:47;;;;;;;3.28;2.33;;;;;;;;;;4999952;28;20030;-47
2022/11/23 03:16:12;;;;;;;6.32;2.95;;;;;;;;;;5001641;28;20105;-46
2022/11/23 03:18:38;;;;;;;4.53;2.80;;;;;;;;;;5007298;28;20036;-46
2022/11/23 03:21:07;;;;;;;5.55;2.58;;;;;;;;;;5008405;28;20026;-47
2022/11/23 03:23:33;;;;;;;4.75;3.20;;;;;;;;;;4999968;28;20065;-46
2022/11/23 03:25:58;;;;;;;8.30;3.30;;;;;;;;;;5004516;28;20034;-46
2022/11/23 03:28:25;;;;;;;6.47;3.10;;;;;;;;;;4998498;28;20041;-45
2022/11/23 03:30:50;;;;;;;5.68;2.53;;;;;;;;;;5009176;28;20057;-48
2022/11/23 03:33:16;;;;;;;5.15;2.50;;;;;;;;;;5002578;28;20438;-45
2022/11/23 03:35:42;;;;;;;4.80;2.40;;;;;;;;;;4999984;28;20389;-48
2022/11/23 03:38:07;;;;;;;4.93;2.67;;;;;;;;;;5002373;28;20027;-46
2022/11/23 03:40:33;;;;;;;4.47;2.47;;;;;;;;;;5008869;28;20041;-47
2022/11/23 03:42:58;;;;;;;4.57;2.42;;;;;;;;;;5005530;28;20112;-46
2022/11/23 03:45:23;;;;;;;3.70;2.47;;;;;;;;;;5002032;28;20050;-45
2022/11/23 03:47:49;;;;;;;5.97;2.70;;;;;;;;;;5004057;28;20037;-46
2022/11/23 03:50:14;;;;;;;5.50;2.47;;;;;;;;;;5007276;28;20554;-44
2022/11/23 03:52:40;;;;;;;5.05;2.65;;;;;;;;;;5006004;28;20180;-45
2022/11/23 03:55:06;;;;;;;8.45;2.33;;;;;;;;;;5003850;28;20049;-44
2022/11/23 03:57:32;;;;;;;3.10;2.05;;;;;;;;;;5000397;28;20026;-47
2022/11/23 03:59:57;;;;;;;6.28;2.22;;;;;;;;;;5007886;28;20038;-46
2022/11/23 04:02:23;;;;;;;3.53;2.40;;;;;;;;;;4996254;28;20471;-44
2022/11/23 04:04:48;;;;;;;4.10;2.35;;;;;;;;;;4999086;28;20034;-45
2022/11/23 04:07:14;;;;;;;4.95;2.30;;;;;;;;;;5007657;28;20045;-44
2022/11/23 04:09:39;;;;;;;3.13;2.42;;;;;;;;;;5002653;28;20045;-44
2022/11/23 04:12:05;;;;;;;3.90;2.40;;;;;;;;;;5006113;28;20435;-46
2022/11/23 04:14:31;;;;;;;3.83;2.42;;;;;;;;;;4994346;28;20034;-46
2022/11/23 04:16:56;;;;;;;6.50;2.53;;;;;;;;;;5003941;28;20026;-47
2022/11/23 04:19:22;;;;;;;3.35;2.55;;;;;;;;;;5001075;28;20549;-45
2022/11/23 04:21:47;;;;;;;5.25;2.58;;;;;;;;;;5000736;28;20471;-47
2022/11/23 04:24:12;;;;;;;4.88;2.38;;;;;;;;;;5006812;28;20073;-44
2022/11/23 04:26:39;;;;;;;4.97;2.30;;;;;;;;;;5001472;28;20034;-50
2022/11/23 04:29:05;;;;;;;4.20;2.40;;;;;;;;;;4999998;28;20052;-44
2022/11/23 04:31:31;;;;;;;5.15;2.72;;;;;;;;;;5003899;28;20026;-45
2022/11/23 04:33:56;;;;;;;3.25;2.10;;;;;;;;;;5003608;28;20050;-44
2022/11/23 04:36:22;;;;;;;13.48;2.25;;;;;;;;;;5004952;28;20094;-46
2022/11/23 04:38:47;;;;;;;2.95;2.55;;;;;;;;;;5002776;28;20030;-45
2022/11/23 04:41:13;;;;;;;6.15;2.80;;;;;;;;;;5004067;28;20072;-46
2022/11/23 04:43:38;;;;;;;3.28;2.50;;;;;;;;;;5001419;28;20028;-49
2022/11/23 04:46:04;;;;;;;6.32;2.60;;;;;;;;;;5000206;28;20096;-50
2022/11/23 04:48:30;;;;;;;7.00;2.72;;;;;;;;;;5009019;28;20061;-45
2022/11/23 04:50:56;;;;;;;4.18;2.50;;;;;;;;;;5000244;28;20148;-44
2022/11/23 04:53:22;;;;;;;6.95;3.17;;;;;;;;;;5009321;28;20033;-45
2022/11/23 04:55:47;;;;;;;3.40;2.17;;;;;;;;;;5002695;28;20046;-44
2022/11/23 04:58:12;;;;;;;6.95;2.78;;;;;;;;;;5007286;28;20104;-46
2022/11/23 05:00:38;;;;;;;4.60;2.67;;;;;;;;;;4998687;28;20407;-47
2022/11/23 05:03:03;;;;;;;6.00;2.60;;;;;;;;;;5006860;28;20029;-48
2022/11/23 05:05:29;;;;;;;6.82;2.80;;;;;;;;;;5007722;28;20041;-44
2022/11/23 05:07:55;;;;;;;5.30;2.55;;;;;;;;;;5006534;28;20026;-44
2022/11/23 05:10:20;;;;;;;4.38;2.85;;;;;;;;;;5004138;28;20104;-45
2022/11/23 05:12:46;;;;;;;5.10;2.45;;;;;;;;;;4996684;28;20030;-50
2022/11/23 05:15:13;;;;;;;3.05;2.33;;;;;;;;;;5005861;28;20038;-48
2022/11/23 05:17:38;;;;;;;5.05;2.70;;;;;;;;;;5001859;28;20382;-47
2022/11/23 05:20:04;;;;;;;7.30;2.35;;;;;;;;;;5005192;28;20038;-47
2022/11/23 05:22:30;;;;;;;3.70;2.35;;;;;;;;;;5003733;28;20097;-45
2022/11/23 05:24:55;;;;;;;3.58;2.20;;;;;;;;;;4995380;28;20123;-44
2022/11/23 05:27:20;;;;;;;4.20;2.75;;;;;;;;;;4994087;28;20061;-45
2022/11/23 05:29:46;;;;;;;3.08;2.33;;;;;;;;;;5004975;28;20656;-47
2022/11/23 05:32:11;;;;;;;4.85;2.78;;;;;;;;;;5000862;28;20022;-45
2022/11/23 05:34:36;;;;;;;4.30;2.67;;;;;;;;;;5001224;28;20039;-49
2022/11/23 05:37:02;;;;;;;4.90;2.55;;;;;;;;;;5001216;28;20053;-49
2022/11/23 05:39:27;;;;;;;3.22;2.42;;;;;;;;;;4999315;28;20080;-50
2022/11/23 05:41:53;;;;;;;2.58;2.38;;;;;;;;;;5005101;28;20029;-45
2022/11/23 05:44:19;;;;;;;7.68;2.95;;;;;;;;;;5006807;28;20050;-50
2022/11/23 05:46:44;;;;;;;7.70;2.80;;;;;;;;;;5000283;28;20026;-46
2022/11/23 05:49:09;;;;;;;4.57;2.72;;;;;;;;;;4999535;28;20052;-45
2022/11/23 05:51:35;;;;;;;5.50;2.90;;;;;;;;;;4998460;28;20450;-44
2022/11/23 05:54:01;;;;;;;4.90;2.92;;;;;;;;;;4999137;28;20038;-45
2022/11/23 05:56:26;;;;;;;5.68;3.00;;;;;;;;;;5003631;28;20136;-47
2022/11/23 05:58:55;;;;;;;4.32;2.95;;;;;;;;;;5000277;28;20498;-48
2022/11/23 06:01:20;;;;;;;6.90;3.15;;;;;;;;;;5004453;28;20478;-46
2022/11/23 06:03:45;;;;;;;5.32;3.00;;;;;;;;;;5000103;28;20096;-48
2022/11/23 06:06:11;;;;;;;3.78;2.72;;;;;;;;;;4999970;28;20022;-46
2022/11/23 06:08:36;;;;;;;4.03;2.70;;;;;;;;;;4999361;28;20025;-48
2022/11/23 06:11:02;;;;;;;7.30;2.92;;;;;;;;;;5001838;28;20396;-47
2022/11/23 06:13:27;;;;;;;5.93;3.08;;;;;;;;;;5004704;28;20084;-47
2022/11/23 06:15:52;;;;;;;5.18;3.42;;;;;;;;;;5004295;28;20053;-46
2022/11/23 06:18:18;;;;;;;7.47;3.67;;;;;;;;;;5002033;28;20029;-45
2022/11/23 06:20:43;;;;;;;6.28;3.13;;;;;;;;;;5004070;28;20034;-48
2022/11/23 06:23:08;;;;;;;5.50;3.50;;;;;;;;;;5003953;28;20026;-44
2022/11/23 06:25:34;;;;;;;4.50;3.60;;;;;;;;;;4999969;28;20101;-46
2022/11/23 06:28:00;;;;;;;6.10;2.92;;;;;;;;;;5001061;28;20101;-44
2022/11/23 06:30:27;;;;;;;4.70;2.97;;;;;;;;;;5003944;28;20145;-45
2022/11/23 06:32:53;;;;;;;4.68;3.17;;;;;;;;;;5003457;28;20029;-49
2022/11/23 06:35:19;;;;;;;4.32;3.53;;;;;;;;;;5001039;28;20445;-45
2022/11/23 06:37:47;;;;;;;6.88;4.07;;;;;;;;;;5003437;28;20065;-46
2022/11/23 06:40:13;;;;;;;7.13;3.97;;;;;;;;;;5004968;28;20124;-44
2022/11/23 06:42:38;;;;;;;9.90;4.40;;;;;;;;;;4998663;28;20120;-46
2022/11/23 06:45:04;;;;;;;6.78;4.78;;;;;;;;;;5004011;28;20443;-46
2022/11/23 06:47:29;;;;;;;14.63;5.57;;;;;;;;;;5004701;28;20030;-44
2022/11/23 06:49:55;;;;;;;16.80;9.30;;;;;;;;;;5000923;28;20359;-45
2022/11/23 06:52:20;;;;;;;15.23;8.57;;;;;;;;;;5004363;28;20034;-47
2022/11/23 06:54:46;;;;;;;16.23;8.82;;;;;;;;;;5004714;28;20408;-50
2022/11/23 06:57:11;;;;;;;12.27;7.32;;;;;;;;;;5002989;28;20033;-45
2022/11/23 06:59:36;;;;;;;11.63;7.47;;;;;;;;;;5001657;28;20371;-45
2022/11/23 07:02:02;;;;;;;15.25;7.18;;;;;;;;;;5005953;28;20026;-45
2022/11/23 07:04:27;;;;;;;13.30;5.95;;;;;;;;;;5006458;28;20065;-44
2022/11/23 07:06:52;;;;;;;8.93;5.43;;;;;;;;;;4999040;28;20029;-45
2022/11/23 07:09:18;;;;;;;7.32;4.68;;;;;;;;;;5005834;28;20567;-45
2022/11/23 07:11:44;;;;;;;5.65;3.85;;;;;;;;;;5004346;28;20022;-47
2022/11/23 07:14:09;;;;;;;5.30;3.75;;;;;;;;;;5007592;28;20066;-47
2022/11/23 07:16:35;;;;;;;7.32;4.07;;;;;;;;;;5000342;28;20046;-45
2022/11/23 07:19:00;;;;;;;11.02;5.30;;;;;;;;;;5006908;28;20498;-45
2022/11/23 07:21:25;;;;;;;16.88;6.45;;;;;;;;;;4995288;28;20037;-47
2022/11/23 07:23:51;;;;;;;11.30;5.32;;;;;;;;;;5000132;28;20052;-46
2022/11/23 07:26:16;;;;;;;7.22;4.25;;;;;;;;;;5005879;28;20021;-44
2022/11/23 07:28:41;;;;;;;6.72;4.20;;;;;;;;;;4996008;28;20026;-45
2022/11/23 07:31:07;;;;;;;7.00;3.95;;;;;;;;;;5006673;28;20168;-47
2022/11/23 07:33:32;;;;;;;7.10;3.45;;;;;;;;;;5002018;28;20031;-45
2022/11/23 07:36:01;;;;;;;10.57;2.92;;;;;;;;;;5007005;28;20125;-49
2022/11/23 07:38:27;;;;;;;8.98;5.18;;;;;;;;;;5004754;28;20026;-46
2022/11/23 07:40:52;;;;;;;10.48;8.82;;;;;;;;;;5004214;28;20065;-46
2022/11/23 07:43:17;;;;;;;7.40;5.75;;;;;;;;;;5008547;28;20379;-44
2022/11/23 07:45:43;;;;;;;7.60;6.07;;;;;;;;;;5001053;28;20069;-50
2022/11/23 07:48:09;;;;;;;22.42;7.90;;;;;;;;;;5001654;28;20023;-44
2022/11/23 07:50:36;;;;;;;15.20;8.10;;;;;;;;;;5004086;28;20042;-44
2022/11/23 07:53:03;;;;;;;16.35;8.57;;;;;;;;;;5003416;28;20113;-45
2022/11/23 07:55:30;;;;;;;18.13;7.57;;;;;;;;;;5004682;28;20030;-45
2022/11/23 07:57:56;;;;;;;9.23;6.30;;;;;;;;;;5008414;28;20026;-44
2022/11/23 08:00:22;;;;;;;18.08;10.05;;;;;;;;;;5001464;28;20072;-45
2022/11/23 08:02:48;;;;;;;22.13;9.70;;;;;;;;;;5003237;28;20026;-45
2022/11/23 08:05:14;;;;;;;22.42;14.00;;;;;;;;;;4998072;28;20392;-46
2022/11/23 08:07:40;;;;;;;27.13;15.85;;;;;;;;;;5002980;28;20026;-44
2022/11/23 08:10:05;;;;;;;30.58;15.13;;;;;;;;;;5003446;28;20457;-44
2022/11/23 08:12:31;;;;;;;27.02;12.82;;;;;;;;;;5001801;28;20038;-46
2022/11/23 08:14:56;;;;;;;20.50;14.02;;;;;;;;;;4999241;28;20040;-45
2022/11/23 08:17:21;;;;;;;20.15;11.40;;;;;;;;;;5006565;28;20038;-46
2022/11/23 08:19:47;;;;;;;22.75;13.88;;;;;;;;;;5000446;28;20057;-48
2022/11/23 08:22:13;;;;;;;19.88;14.88;;;;;;;;;;5006643;28;20022;-44
2022/11/23 08:24:38;;;;;;;14.00;10.98;;;;;;;;;;5005113;28;20042;-44
2022/11/23 08:27:03;;;;;;;16.17;10.30;;;;;;;;;;5006339;28;20085;-44
2022/11/23 08:29:29;;;;;;;12.55;9.82;;;;;;;;;;5003045;28;20030;-44
2022/11/23 08:31:55;;;;;;;10.95;8.93;;;;;;;;;;4998745;28;20042;-46
2022/11/23 08:34:20;;;;;;;11.98;8.55;;;;;;;;;;5005579;28;20189;-44
2022/11/23 08:36:46;;;;;;;19.83;8.20;;;;;;;;;;5004072;28;20092;-48
2022/11/23 08:39:13;;;;;;;14.75;7.20;;;;;;;;;;5002973;28;20499;-44
2022/11/23 08:41:39;;;;;;;11.48;6.68;;;;;;;;;;5003697;28;20041;-46
2022/11/23 08:44:07;;;;;;;12.13;7.13;;;;;;;;;;5003978;28;20037;-45
2022/11/23 08:46:32;;;;;;;13.95;7.95;;;;;;;;;;4996251;28;20034;-46
2022/11/23 08:48:58;;;;;;;11.55;7.22;;;;;;;;;;4999831;28;20049;-44
2022/11/23 08:51:23;;;;;;;11.90;8.13;;;;;;;;;;5005269;28;20022;-44
2022/11/23 08:53:49;;;;;;;12.73;7.68;;;;;;;;;;5003288;28;20045;-46
2022/11/23 08:56:15;;;;;;;11.88;6.68;;;;;;;;;;5002104;28;20394;-46
2022/11/23 08:58:40;;;;;;;13.13;5.88;;;;;;;;;;5006768;28;20032;-43
2022/11/23 09:01:11;;;;;;;9.48;5.70;;;;;;;;;;5001841;28;20038;-48
2022/11/23 09:03:37;;;;;;;7.45;5.65;;;;;;;;;;4998895;28;20493;-47
2022/11/23 09:06:03;;;;;;;8.10;6.18;;;;;;;;;;5002321;28;20091;-45
2022/11/23 09:08:28;;;;;;;15.40;5.57;;;;;;;;;;5004453;28;20026;-44
2022/11/23 09:10:57;;;;;;;9.25;4.68;;;;;;;;;;4997338;28;20046;-45
2022/11/23 09:13:23;;;;;;;20.88;13.95;;;;;;;;;;5002246;28;20030;-44
2022/11/23 09:15:48;;;;;;;7.97;4.50;;;;;;;;;;5006177;28;20030;-44
2022/11/23 09:18:13;;;;;;;6.13;4.75;;;;;;;;;;5001248;28;20026;-47
2022/11/23 09:20:39;;;;;;;6.70;4.88;;;;;;;;;;5004313;28;20045;-47
2022/11/23 09:23:04;;;;;;;7.13;4.15;;;;;;;;;;5002035;28;20029;-44
2022/11/23 09:25:30;;;;;;;8.90;3.53;;;;;;;;;;5003011;28;20039;-46
2022/11/23 09:27:57;;;;;;;6.22;4.05;;;;;;;;;;5004076;28;20491;-44
2022/11/23 09:30:22;;;;;;;8.40;4.68;;;;;;;;;;5000305;28;20438;-47
2022/11/23 09:32:48;;;;;;;9.50;4.47;;;;;;;;;;5007238;28;20052;-45
2022/11/23 09:35:13;;;;;;;26.80;16.80;;;;;;;;;;4999893;28;20483;-46
2022/11/23 09:37:38;;;;;;;10.20;7.07;;;;;;;;;;5002597;28;20472;-45
2022/11/23 09:40:04;;;;;;;6.22;4.20;;;;;;;;;;5004716;28;20045;-45
2022/11/23 09:42:42;;;;;;;14.07;4.70;;;;;;;;;;5002886;28;20026;-47
2022/11/23 09:45:11;;;;;;;7.50;3.78;;;;;;;;;;4997053;28;20100;-45
2022/11/23 09:48:06;;;;;;;11.23;4.15;;;;;;;;;;5000778;28;20038;-45
2022/11/23 09:50:55;;;;;;;5.05;3.45;;;;;;;;;;4999108;28;20098;-44
2022/11/23 09:53:29;;;;;;;9.73;4.00;;;;;;;;;;4995216;28;20037;-44
2022/11/23 09:55:56;;;;;;;9.90;4.47;;;;;;;;;;4995107;28;20507;-45
2022/11/23 09:58:26;;;;;;;6.50;4.88;;;;;;;;;;5001755;28;20030;-44
2022/11/23 10:01:11;;;;;;;7.30;4.93;;;;;;;;;;5000818;28;20141;-44
2022/11/23 10:03:39;;;;;;;6.75;4.63;;;;;;;;;;4999677;28;20104;-47
2022/11/23 10:06:21;;;;;;;7.20;4.72;;;;;;;;;;5033619;28;20430;-48
2022/11/23 10:09:14;;;;;;;9.45;5.47;;;;;;;;;;4997558;28;20069;-45
2022/11/23 10:11:58;;;;;;;;;;;;;;;;;;5003657;28;20025;-48
2022/11/23 10:14:42;;;;;;;8.07;4.68;;;;;;;;;;4999342;28;20398;-45
2022/11/23 10:17:23;;;;;;;5.57;3.58;;;;;;;;;;5000109;28;20146;-44
2022/11/23 10:20:25;;;;;;;8.90;4.53;;;;;;;;;;5002512;28;20046;-44
2022/11/23 10:22:56;;;;;;;;;;;;;;;;;;5002955;28;20551;-46
2022/11/23 10:25:23;;;;;;;12.20;4.80;;;;;;;;;;4997557;28;19926;-45
2022/11/23 10:27:53;;;;;;;6.03;4.40;;;;;;;;;;4999518;28;20036;-44
2022/11/23 10:30:19;;;;;;;7.93;6.05;;;;;;;;;;5003084;28;20046;-46
2022/11/23 10:33:04;;;;;;;11.45;6.68;;;;;;;;;;5010711;28;20030;-47
2022/11/23 10:35:32;;;;;;;9.27;5.28;;;;;;;;;;5006846;28;20038;-47
2022/11/23 10:38:12;;;;;;;7.40;5.13;;;;;;;;;;5007391;28;20029;-48
2022/11/23 10:41:15;;;;;;;10.27;4.70;;;;;;;;;;5002276;28;20048;-49
2022/11/23 10:43:50;;;;;;;8.00;4.97;;;;;;;;;;5005481;28;20605;-44
2022/11/23 10:46:32;;;;;;;14.55;7.95;;;;;;;;;;5006641;28;20053;-46
2022/11/23 10:49:08;;;;;;;8.75;5.50;;;;;;;;;;5003242;28;20042;-45
2022/11/23 10:51:33;;;;;;;10.32;4.80;;;;;;;;;;5007438;28;20026;-45
2022/11/23 10:54:03;;;;;;;9.65;5.90;;;;;;;;;;5002311;28;20053;-44
2022/11/23 10:56:29;;;;;;;7.05;4.82;;;;;;;;;;5006637;28;20036;-44
2022/11/23 10:58:54;;;;;;;9.43;5.15;;;;;;;;;;5006070;28;20641;-47
2022/11/23 11:01:23;;;;;;;8.05;4.80;;;;;;;;;;5009873;28;20030;-46
2022/11/23 11:03:51;;;;;;;9.75;5.40;;;;;;;;;;5001858;28;20455;-45
2022/11/23 11:06:24;;;;;;;14.70;8.77;;;;;;;;;;5010461;28;20061;-44
2022/11/23 11:08:54;;;;;;;17.70;9.77;;;;;;;;;;5000610;28;20044;-46
2022/11/23 11:11:31;;;;;;;7.07;5.28;;;;;;;;;;5003009;28;20033;-45
2022/11/23 11:14:15;;;;;;;11.32;6.50;;;;;;;;;;5005125;28;20042;-44
2022/11/23 11:16:54;;;;;;;10.20;5.72;;;;;;;;;;5009344;28;20030;-45
2022/11/23 11:19:34;;;;;;;14.15;5.80;;;;;;;;;;5005680;28;20694;-50
2022/11/23 11:22:35;;;;;;;11.85;6.78;;;;;;;;;;5001105;28;20041;-45
2022/11/23 11:25:05;;;;;;;8.43;5.45;;;;;;;;;;4984346;28;20045;-45
2022/11/23 11:27:31;;;;;;;9.07;4.68;;;;;;;;;;4986076;28;20050;-44
2022/11/23 11:30:05;;;;;;;9.32;5.38;;;;;;;;;;4985786;28;20561;-45
2022/11/23 11:32:48;;;;;;;16.92;3.85;;;;;;;;;;4984543;28;20450;-45
2022/11/23 11:35:22;;;;;;;7.55;4.40;;;;;;;;;;4987544;28;20125;-44
2022/11/23 11:37:50;;;;;;;13.30;4.30;;;;;;;;;;4986154;28;20034;-44
2022/11/23 11:40:34;;;;;;;12.57;3.58;;;;;;;;;;4986922;28;20066;-46
2022/11/23 11:43:11;;;;;;;9.15;4.55;;;;;;;;;;4983848;28;20082;-48
2022/11/23 11:45:41;;;;;;;14.02;4.30;;;;;;;;;;4988045;28;20101;-44
2022/11/23 11:48:15;;;;;;;7.43;4.40;;;;;;;;;;4978123;28;20046;-45
2022/11/23 11:50:59;;;;;;;15.95;5.97;;;;;;;;;;4983828;28;20042;-46
2022/11/23 11:53:42;;;;;;;18.80;6.97;;;;;;;;;;4982715;28;20043;-47
2022/11/23 11:56:28;;;;;;;12.27;6.32;;;;;;;;;;4980911;28;20056;-48
2022/11/23 11:59:21;;;;;;;10.35;6.35;;;;;;;;;;4982211;28;20042;-44
2022/11/23 12:01:46;;;;;;;;;;;;;;;;;;5003907;28;20138;-50
2022/11/23 12:04:27;;;;;;;12.18;6.90;;;;;;;;;;4996201;28;20016;-45
2022/11/23 12:07:03;;;;;;;13.18;6.72;;;;;;;;;;5003160;28;20482;-44
2022/11/23 12:09:34;;;;;;;12.65;6.22;;;;;;;;;;5003756;28;20507;-46
2022/11/23 12:11:59;;;;;;;11.65;6.63;;;;;;;;;;5001143;28;20159;-44
2022/11/23 12:14:25;;;;;;;14.13;8.05;;;;;;;;;;5004333;28;20723;-44
2022/11/23 12:17:10;;;;;;;12.18;6.32;;;;;;;;;;5009742;28;20077;-45
2022/11/23 12:19:44;;;;;;;10.43;6.80;;;;;;;;;;5000633;28;20049;-44
2022/11/23 12:22:21;;;;;;;14.40;7.03;;;;;;;;;;5006883;28;20479;-44
2022/11/23 12:24:55;;;;;;;13.18;6.88;;;;;;;;;;5005921;28;20137;-45
2022/11/23 12:27:40;;;;;;;12.18;6.47;;;;;;;;;;5002613;28;20030;-48
2022/11/23 12:30:38;;;;;;;12.43;7.78;;;;;;;;;;4998785;28;20042;-47
2022/11/23 12:33:15;;;;;;;12.77;5.28;;;;;;;;;;5005609;28;20052;-49
2022/11/23 12:36:01;;;;;;;10.38;5.70;;;;;;;;;;5007123;28;20041;-44
2022/11/23 12:38:37;;;;;;;12.13;5.38;;;;;;;;;;5008155;28;20046;-44
2022/11/23 12:41:02;;;;;;;11.10;5.70;;;;;;;;;;5011540;28;20041;-45
2022/11/23 12:43:31;;;;;;;16.77;6.20;;;;;;;;;;5006231;28;20038;-45
2022/11/23 12:46:24;;;;;;;24.15;11.90;;;;;;;;;;5006636;28;20111;-47
2022/11/23 12:49:02;;;;;;;15.25;6.35;;;;;;;;;;5006364;28;20041;-45
2022/11/23 12:52:08;;;;;;;15.90;5.75;;;;;;;;;;5007638;28;20046;-47
2022/11/23 12:55:05;;;;;;;6.88;4.88;;;;;;;;;;5007393;28;20053;-44
2022/11/23 12:57:41;;;;;;;8.52;5.63;;;;;;;;;;5002299;28;20042;-48
2022/11/23 13:00:15;;;;;;;10.35;5.43;;;;;;;;;;5003445;28;20124;-44
2022/11/23 13:02:56;;;;;;;8.25;5.32;;;;;;;;;;5006494;28;20038;-46
2022/11/23 13:05:59;;;;;;;10.05;6.03;;;;;;;;;;5006121;28;20045;-45
2022/11/23 13:08:39;;;;;;;12.60;6.60;;;;;;;;;;5007747;28;20385;-44
2022/11/23 13:11:18;;;;;;;11.40;6.13;;;;;;;;;;5006704;28;20436;-45
2022/11/23 13:13:58;;;;;;;17.55;6.35;;;;;;;;;;4999719;28;20048;-45
2022/11/23 13:16:35;;;;;;;12.35;5.88;;;;;;;;;;4993468;28;20532;-44
2022/11/23 13:19:49;;;;;;;11.05;6.50;;;;;;;;;;4998805;28;20498;-45
2022/11/23 13:22:19;;;;;;;12.90;5.88;;;;;;;;;;5001678;28;20044;-46
2022/11/23 13:25:12;;;;;;;9.52;6.05;;;;;;;;;;5003349;28;20045;-45
2022/11/23 13:27:47;;;;;;;11.63;6.18;;;;;;;;;;4998423;28;20042;-48
2022/11/23 13:30:35;;;;;;;12.30;6.38;;;;;;;;;;5006211;28;20054;-47
2022/11/23 13:33:15;;;;;;;11.55;6.00;;;;;;;;;;4999892;28;20030;-47
2022/11/23 13:35:41;;;;;;;11.85;6.78;;;;;;;;;;5001553;28;20136;-44
2022/11/23 13:38:12;;;;;;;13.10;6.03;;;;;;;;;;5003821;28;20129;-45
2022/11/23 13:40:38;;;;;;;16.08;6.10;;;;;;;;;;4998588;28;20041;-50
2022/11/23 13:43:27;;;;;;;13.02;5.80;;;;;;;;;;4997970;28;20033;-44
2022/11/23 17:20:55;;;;;;;10.05;5.63;;;;;;;;;;5017028;27;20632;-46
2022/11/23 17:23:21;;;;;;;8.25;5.28;;;;;;;;;;5019795;28;20033;-45
2022/11/23 17:25:47;;;;;;;15.93;9.38;;;;;;;;;;5019556;28;20050;-45
2022/11/23 17:28:15;;;;;;;20.50;12.20;;;;;;;;;;5023156;28;20025;-47
2022/11/23 17:30:42;;;;;;;30.38;19.30;;;;;;;;;;5020083;28;20038;-45
2022/11/23 17:33:10;;;;;;;33.05;20.52;;;;;;;;;;5023419;28;20060;-46
2022/11/23 17:35:36;;;;;;;66.55;36.00;;;;;;;;;;5018847;28;20030;-46
2022/11/23 17:38:02;;;;;;;67.95;38.15;;;;;;;;;;5012487;28;20041;-46
2022/11/23 17:40:27;;;;;;;37.28;23.98;;;;;;;;;;5019499;28;20042;-45
2022/11/23 17:42:52;;;;;;;22.05;15.32;;;;;;;;;;5026988;28;20026;-51
2022/11/23 17:45:18;;;;;;;26.58;17.00;;;;;;;;;;5021287;28;20571;-45
2022/11/23 17:47:44;;;;;;;21.30;15.35;;;;;;;;;;5019463;28;20041;-47
2022/11/23 17:50:12;;;;;;;20.70;13.80;;;;;;;;;;5020062;28;20687;-45
2022/11/23 17:52:40;;;;;;;16.63;11.18;;;;;;;;;;5013145;28;20025;-44
2022/11/23 17:55:07;;;;;;;16.20;9.80;;;;;;;;;;5011340;28;20148;-45
2022/11/23 17:57:33;;;;;;;16.38;9.02;;;;;;;;;;5023342;28;20022;-44
2022/11/23 17:59:58;;;;;;;14.15;8.25;;;;;;;;;;5007311;28;20545;-42
2022/11/23 18:02:24;;;;;;;14.18;10.27;;;;;;;;;;5000606;28;20026;-49
2022/11/23 18:04:49;;;;;;;14.88;7.72;;;;;;;;;;5001749;28;20094;-46
2022/11/23 18:07:15;;;;;;;16.92;12.13;;;;;;;;;;4991674;28;20022;-44
2022/11/23 18:09:41;;;;;;;24.95;19.45;;;;;;;;;;4998248;28;20096;-50
2022/11/23 18:12:08;;;;;;;19.67;15.23;;;;;;;;;;5003340;28;20042;-44
2022/11/23 18:14:34;;;;;;;17.17;12.98;;;;;;;;;;4997141;28;20774;-45
2022/11/23 18:16:59;;;;;;;16.10;10.00;;;;;;;;;;4998161;28;20084;-44
2022/11/23 18:19:24;;;;;;;12.82;8.20;;;;;;;;;;5003635;28;20043;-44
2022/11/23 18:21:50;;;;;;;11.00;8.63;;;;;;;;;;5023978;28;20048;-44
2022/11/23 18:24:15;;;;;;;11.23;8.63;;;;;;;;;;5014166;28;20402;-44
2022/11/23 18:26:41;;;;;;;19.60;11.05;;;;;;;;;;5023927;28;20394;-44